createdAt,value
2018-08-28T00:01:24.721Z,4.37
2018-08-28T00:03:53.902Z,4.10
2018-08-28T00:06:22.474Z,4.77
2018-08-28T00:08:51.276Z,4.03
2018-08-28T00:11:19.677Z,4.70
2018-08-28T00:13:48.249Z,4.87
2018-08-28T00:16:16.941Z,4.93
2018-08-28T00:18:45.339Z,4.97
2018-08-28T00:21:13.769Z,4.67
2018-08-28T00:23:42.177Z,4.60
2018-08-28T00:26:10.677Z,4.17
2018-08-28T00:28:39.078Z,4.57
2018-08-28T00:31:07.599Z,4.33
2018-08-28T00:33:36.053Z,4.93
2018-08-28T00:36:04.477Z,4.70
2018-08-28T00:38:32.872Z,4.67
2018-08-28T00:41:01.349Z,4.70
2018-08-28T00:43:29.725Z,4.87
2018-08-28T00:45:58.233Z,4.50
2018-08-28T00:48:26.658Z,4.60
2018-08-28T00:50:55.199Z,4.87
2018-08-28T00:53:23.589Z,5.00
2018-08-28T00:55:52.014Z,4.33
2018-08-28T00:58:20.358Z,4.70
2018-08-28T01:00:48.753Z,4.33
2018-08-28T01:03:17.109Z,4.20
2018-08-28T01:05:45.519Z,4.77
2018-08-28T01:08:13.874Z,4.60
2018-08-28T01:10:48.662Z,4.97
2018-08-28T01:13:17.063Z,4.80
2018-08-28T01:15:45.525Z,4.47
2018-08-28T01:18:13.898Z,4.80
2018-08-28T01:20:42.285Z,4.50
2018-08-28T01:23:10.653Z,4.50
2018-08-28T01:25:39.005Z,5.03
2018-08-28T01:28:07.423Z,4.53
2018-08-28T01:30:36.125Z,4.40
2018-08-28T01:33:06.494Z,4.80
2018-08-28T01:35:35.221Z,4.67
2018-08-28T01:38:03.781Z,4.43
2018-08-28T01:40:32.196Z,4.60
2018-08-28T01:43:00.900Z,4.53
2018-08-28T01:45:29.574Z,4.30
2018-08-28T01:47:57.930Z,4.30
2018-08-28T01:50:26.318Z,4.40
2018-08-28T01:52:54.853Z,4.17
2018-08-28T01:55:23.678Z,4.37
2018-08-28T01:57:52.054Z,4.47
2018-08-28T02:00:20.436Z,4.27
2018-08-28T02:02:48.790Z,4.03
2018-08-28T02:05:17.255Z,4.33
2018-08-28T02:07:45.685Z,4.03
2018-08-28T02:10:14.037Z,4.27
2018-08-28T02:12:42.376Z,4.17
2018-08-28T02:15:10.784Z,4.20
2018-08-28T02:17:39.463Z,3.97
2018-08-28T02:20:07.898Z,3.83
2018-08-28T02:22:36.321Z,3.83
2018-08-28T02:25:05.402Z,4.00
2018-08-28T02:27:33.777Z,3.90
2018-08-28T02:30:02.198Z,4.23
2018-08-28T02:32:30.738Z,4.07
2018-08-28T02:34:59.149Z,4.37
2018-08-28T02:37:27.864Z,4.23
2018-08-28T02:39:56.674Z,4.40
2018-08-28T02:42:25.034Z,3.53
2018-08-28T02:44:53.637Z,3.90
2018-08-28T02:47:22.009Z,4.13
2018-08-28T02:49:50.394Z,3.90
2018-08-28T02:52:18.761Z,4.07
2018-08-28T02:54:47.231Z,4.00
2018-08-28T02:57:15.638Z,4.40
2018-08-28T02:59:44.057Z,4.10
2018-08-28T03:02:12.469Z,3.90
2018-08-28T03:04:40.893Z,4.20
2018-08-28T03:07:09.370Z,4.17
2018-08-28T03:09:37.778Z,4.27
2018-08-28T03:12:06.190Z,4.70
2018-08-28T03:14:34.630Z,4.67
2018-08-28T03:17:03.106Z,3.80
2018-08-28T03:19:31.557Z,3.80
2018-08-28T03:21:59.971Z,4.90
2018-08-28T03:24:28.389Z,4.10
2018-08-28T03:26:56.770Z,3.80
2018-08-28T03:29:25.154Z,4.40
2018-08-28T03:31:53.582Z,4.80
2018-08-28T03:34:21.977Z,4.57
2018-08-28T03:36:50.466Z,4.20
2018-08-28T03:39:18.878Z,3.93
2018-08-28T03:41:47.297Z,4.70
2018-08-28T03:44:15.692Z,4.17
2018-08-28T03:46:44.098Z,4.27
2018-08-28T03:49:12.556Z,4.40
2018-08-28T03:51:40.950Z,4.40
2018-08-28T03:54:09.390Z,4.17
2018-08-28T03:56:37.845Z,4.87
2018-08-28T03:59:06.223Z,5.00
2018-08-28T04:01:34.620Z,4.70
2018-08-28T04:04:03.032Z,4.67
2018-08-28T04:06:31.480Z,4.67
2018-08-28T04:08:59.912Z,4.90
2018-08-28T04:11:28.331Z,5.33
2018-08-28T04:13:56.721Z,4.63
2018-08-28T04:16:25.118Z,4.83
2018-08-28T04:18:53.556Z,5.03
2018-08-28T04:21:21.945Z,4.63
2018-08-28T04:23:50.353Z,5.70
2018-08-28T04:26:18.809Z,5.67
2018-08-28T04:28:47.339Z,4.97
2018-08-28T04:31:15.772Z,5.03
2018-08-28T04:33:44.180Z,4.83
2018-08-28T04:36:12.578Z,4.67
2018-08-28T04:38:41.009Z,4.30
2018-08-28T04:41:09.414Z,4.83
2018-08-28T04:43:37.858Z,5.00
2018-08-28T04:46:06.357Z,5.23
2018-08-28T04:48:35.506Z,5.03
2018-08-28T04:51:03.925Z,5.00
2018-08-28T04:53:32.370Z,4.73
2018-08-28T04:56:00.783Z,5.07
2018-08-28T04:58:29.205Z,4.73
2018-08-28T05:00:57.604Z,5.20
2018-08-28T05:03:26.041Z,4.30
2018-08-28T05:05:54.454Z,5.17
2018-08-28T05:08:22.841Z,4.50
2018-08-28T05:10:51.249Z,5.03
2018-08-28T05:13:20.581Z,4.60
2018-08-28T05:15:49.651Z,4.67
2018-08-28T05:18:18.304Z,4.00
2018-08-28T05:20:47.141Z,4.47
2018-08-28T05:23:15.958Z,4.77
2018-08-28T05:25:44.741Z,4.70
2018-08-28T05:28:13.511Z,5.07
2018-08-28T05:30:42.318Z,4.30
2018-08-28T05:33:11.018Z,4.63
2018-08-28T05:35:39.806Z,4.13
2018-08-28T05:38:08.607Z,4.43
2018-08-28T05:40:37.326Z,4.40
2018-08-28T05:43:06.049Z,5.20
2018-08-28T05:45:34.786Z,4.77
2018-08-28T05:48:03.760Z,4.70
2018-08-28T05:50:32.434Z,4.27
2018-08-28T05:53:01.160Z,4.63
2018-08-28T05:55:29.874Z,4.57
2018-08-28T05:57:58.642Z,4.50
2018-08-28T06:00:27.346Z,4.47
2018-08-28T06:02:56.143Z,4.67
2018-08-28T06:05:25.021Z,5.53
2018-08-28T06:07:54.071Z,4.60
2018-08-28T06:10:22.942Z,4.30
2018-08-28T06:12:51.667Z,4.60
2018-08-28T06:15:20.419Z,4.40
2018-08-28T06:17:49.178Z,4.47
2018-08-28T06:20:18.047Z,4.47
2018-08-28T06:22:46.755Z,5.23
2018-08-28T06:25:15.538Z,4.50
2018-08-28T06:27:44.339Z,4.40
2018-08-28T06:30:13.130Z,4.80
2018-08-28T06:32:41.939Z,4.43
2018-08-28T06:35:10.680Z,5.10
2018-08-28T06:37:39.475Z,5.00
2018-08-28T06:40:08.234Z,5.70
2018-08-28T06:42:37.067Z,5.13
2018-08-28T06:45:05.825Z,4.60
2018-08-28T06:47:34.479Z,4.50
2018-08-28T06:50:02.985Z,4.37
2018-08-28T06:52:31.703Z,4.50
2018-08-28T06:55:00.429Z,4.37
2018-08-28T06:57:29.167Z,4.43
2018-08-28T06:59:59.234Z,4.17
2018-08-28T07:02:28.162Z,4.20
2018-08-28T07:05:09.405Z,4.00
2018-08-28T07:07:41.771Z,4.07
2018-08-28T07:10:10.519Z,4.50
2018-08-28T07:12:39.177Z,4.03
2018-08-28T07:15:08.936Z,3.80
2018-08-28T07:17:37.958Z,4.20
2018-08-28T07:20:06.550Z,4.27
2018-08-28T07:22:34.990Z,3.80
2018-08-28T07:25:03.410Z,3.97
2018-08-28T07:27:31.865Z,4.47
2018-08-28T07:30:00.293Z,4.10
2018-08-28T07:32:28.730Z,4.07
2018-08-28T07:34:57.170Z,4.33
2018-08-28T07:37:25.643Z,4.23
2018-08-28T07:39:54.085Z,4.17
2018-08-28T07:42:22.561Z,3.83
2018-08-28T07:44:50.980Z,4.13
2018-08-28T07:47:19.457Z,4.03
2018-08-28T07:49:48.248Z,4.10
2018-08-28T07:52:16.974Z,4.10
2018-08-28T07:54:45.700Z,3.93
2018-08-28T07:57:14.511Z,4.47
2018-08-28T07:59:43.022Z,3.90
2018-08-28T08:02:11.673Z,3.97
2018-08-28T08:04:40.040Z,3.80
2018-08-28T08:07:08.529Z,4.20
2018-08-28T08:09:36.878Z,3.73
2018-08-28T08:12:05.324Z,4.27
2018-08-28T08:14:33.733Z,4.20
2018-08-28T08:17:02.160Z,4.63
2018-08-28T08:19:30.558Z,3.80
2018-08-28T08:21:58.988Z,4.53
2018-08-28T08:24:27.379Z,4.03
2018-08-28T08:26:55.797Z,4.00
2018-08-28T08:29:24.165Z,4.13
2018-08-28T08:31:52.509Z,3.77
2018-08-28T08:34:20.966Z,4.37
2018-08-28T08:36:49.394Z,4.53
2018-08-28T08:39:17.770Z,4.73
2018-08-28T08:41:46.176Z,4.33
2018-08-28T08:44:14.581Z,4.23
2018-08-28T08:46:42.968Z,4.03
2018-08-28T08:49:11.385Z,4.50
2018-08-28T08:51:39.778Z,4.20
2018-08-28T08:54:08.206Z,4.23
2018-08-28T08:56:36.645Z,4.30
2018-08-28T08:59:05.085Z,4.20
2018-08-28T09:01:33.565Z,3.83
2018-08-28T09:04:02.130Z,4.17
2018-08-28T09:06:30.506Z,4.03
2018-08-28T09:08:58.909Z,3.87
2018-08-28T09:11:27.311Z,3.63
2018-08-28T09:13:55.772Z,3.57
2018-08-28T09:16:24.130Z,3.97
2018-08-28T09:18:52.601Z,4.20
2018-08-28T09:21:20.981Z,3.97
2018-08-28T09:23:49.408Z,3.80
2018-08-28T09:26:17.925Z,4.40
2018-08-28T09:28:46.333Z,3.90
2018-08-28T09:31:14.763Z,3.90
2018-08-28T09:33:43.218Z,3.97
2018-08-28T09:36:11.627Z,3.93
2018-08-28T09:38:40.032Z,3.83
2018-08-28T09:41:08.489Z,3.80
2018-08-28T09:43:37.483Z,3.70
2018-08-28T09:46:05.982Z,3.77
2018-08-28T09:48:34.443Z,3.80
2018-08-28T09:51:02.844Z,3.63
2018-08-28T09:53:31.201Z,3.70
2018-08-28T09:55:59.586Z,3.60
2018-08-28T09:58:27.958Z,4.07
2018-08-28T10:01:01.657Z,4.10
2018-08-28T10:03:30.029Z,4.03
2018-08-28T10:05:58.418Z,3.70
2018-08-28T10:08:26.790Z,3.97
2018-08-28T10:10:55.472Z,4.30
2018-08-28T10:13:29.474Z,3.73
2018-08-28T10:15:58.103Z,3.97
2018-08-28T10:18:26.514Z,3.73
2018-08-28T10:20:54.897Z,3.63
2018-08-28T10:23:23.271Z,3.90
2018-08-28T10:25:51.694Z,3.90
2018-08-28T10:28:20.093Z,4.10
2018-08-28T10:30:48.513Z,4.20
2018-08-28T10:33:16.960Z,4.43
2018-08-28T10:35:44.332Z,4.13
2018-08-28T10:38:12.755Z,4.27
2018-08-28T10:40:41.094Z,4.00
2018-08-28T10:43:09.456Z,3.70
2018-08-28T10:45:37.849Z,4.47
2018-08-28T10:48:06.294Z,4.73
2018-08-28T10:50:34.692Z,3.93
2018-08-28T10:53:03.098Z,4.17
2018-08-28T10:55:31.525Z,4.70
2018-08-28T10:57:59.974Z,4.90
2018-08-28T11:00:28.399Z,4.70
2018-08-28T11:02:56.797Z,4.77
2018-08-28T11:05:25.214Z,4.50
2018-08-28T11:07:53.621Z,4.50
2018-08-28T11:10:22.049Z,4.80
2018-08-28T11:12:50.445Z,4.53
2018-08-28T11:15:18.853Z,5.03
2018-08-28T11:17:47.268Z,5.07
2018-08-28T11:20:15.734Z,4.77
2018-08-28T11:22:44.154Z,4.20
2018-08-28T11:25:12.590Z,5.00
2018-08-28T11:27:40.993Z,4.40
2018-08-28T11:30:09.509Z,4.80
2018-08-28T11:32:37.937Z,4.80
2018-08-28T11:35:06.469Z,4.90
2018-08-28T11:37:34.894Z,4.70
2018-08-28T11:40:03.325Z,4.60
2018-08-28T11:42:31.761Z,4.87
2018-08-28T11:45:00.161Z,4.70
2018-08-28T11:47:28.585Z,5.20
2018-08-28T11:49:57.025Z,4.87
2018-08-28T11:52:26.536Z,4.50
2018-08-28T11:54:54.990Z,4.97
2018-08-28T11:57:24.154Z,5.50
2018-08-28T11:59:52.648Z,5.10
2018-08-28T12:02:21.142Z,4.60
2018-08-28T12:04:50.426Z,5.10
2018-08-28T12:07:18.984Z,5.10
2018-08-28T12:09:48.221Z,4.70
2018-08-28T12:12:16.662Z,5.23
2018-08-28T12:14:45.082Z,4.80
2018-08-28T12:17:13.724Z,4.67
2018-08-28T12:19:42.198Z,5.30
2018-08-28T12:22:10.899Z,5.07
2018-08-28T12:24:39.375Z,4.70
2018-08-28T12:27:07.813Z,4.83
2018-08-28T12:29:36.241Z,4.97
2018-08-28T12:32:04.813Z,5.17
2018-08-28T12:34:33.241Z,5.00
2018-08-28T12:37:01.752Z,5.13
2018-08-28T12:39:30.166Z,4.70
2018-08-28T12:41:58.708Z,4.60
2018-08-28T12:44:27.233Z,5.40
2018-08-28T12:46:55.675Z,5.00
2018-08-28T12:49:24.086Z,5.00
2018-08-28T12:51:52.546Z,9.93
2018-08-28T12:54:21.044Z,6.50
2018-08-28T12:56:49.428Z,5.00
2018-08-28T12:59:17.824Z,4.70
2018-08-28T13:01:46.226Z,5.10
2018-08-28T13:04:14.610Z,4.90
2018-08-28T13:06:43.001Z,5.00
2018-08-28T13:09:11.381Z,4.10
2018-08-28T13:11:39.801Z,4.87
2018-08-28T13:14:08.182Z,5.23
2018-08-28T13:16:36.536Z,4.50
2018-08-28T13:19:05.141Z,4.67
2018-08-28T13:21:33.500Z,5.00
2018-08-28T13:24:01.941Z,4.23
2018-08-28T13:26:30.315Z,4.50
2018-08-28T13:28:58.680Z,4.55
2018-08-28T13:31:27.037Z,4.72
2018-08-28T13:33:55.418Z,5.08
2018-08-28T13:36:23.765Z,5.17
2018-08-28T13:38:52.195Z,4.60
2018-08-28T13:41:20.577Z,5.00
2018-08-28T13:43:49.001Z,4.25
2018-08-28T13:46:17.395Z,4.65
2018-08-28T13:48:45.856Z,4.70
2018-08-28T13:51:14.293Z,4.20
2018-08-28T13:53:42.741Z,3.85
2018-08-28T13:56:11.122Z,4.75
2018-08-28T13:58:39.504Z,4.08
2018-08-28T14:01:07.884Z,4.42
2018-08-28T14:03:36.289Z,4.58
2018-08-28T14:06:04.674Z,4.60
2018-08-28T14:08:33.081Z,4.33
2018-08-28T14:11:01.449Z,4.60
2018-08-28T14:13:29.850Z,4.33
2018-08-28T14:15:58.268Z,4.53
2018-08-28T14:18:26.673Z,4.37
2018-08-28T14:20:55.056Z,4.40
2018-08-28T14:23:23.477Z,4.03
2018-08-28T14:25:52.479Z,4.50
2018-08-28T14:28:20.954Z,4.55
2018-08-28T14:30:49.357Z,4.22
2018-08-28T14:33:17.768Z,4.47
2018-08-28T14:35:46.329Z,4.10
2018-08-28T14:38:14.551Z,4.12
2018-08-28T14:40:42.943Z,4.37
2018-08-28T14:43:11.353Z,4.28
2018-08-28T14:45:39.761Z,4.12
2018-08-28T14:48:08.156Z,4.15
2018-08-28T14:50:36.580Z,4.20
2018-08-28T14:53:04.981Z,4.35
2018-08-28T14:55:33.443Z,4.50
2018-08-28T14:58:01.879Z,3.87
2018-08-28T15:00:30.328Z,3.70
2018-08-28T15:02:58.751Z,4.35
2018-08-28T15:05:27.185Z,4.50
2018-08-28T15:07:55.652Z,4.20
2018-08-28T15:10:27.546Z,4.15
2018-08-28T15:12:55.977Z,4.30
2018-08-28T15:15:24.436Z,4.40
2018-08-28T15:17:52.837Z,4.08
2018-08-28T15:20:21.266Z,4.22
2018-08-28T15:22:49.706Z,4.20
2018-08-28T15:25:18.181Z,4.08
2018-08-28T15:27:46.594Z,4.55
2018-08-28T15:30:15.025Z,4.22
2018-08-28T15:32:43.506Z,4.00
2018-08-28T15:35:11.989Z,3.95
2018-08-28T15:37:40.390Z,4.22
2018-08-28T15:40:08.869Z,4.30
2018-08-28T15:42:37.254Z,3.83
2018-08-28T15:45:05.929Z,4.10
2018-08-28T15:47:34.325Z,4.12
2018-08-28T15:50:02.769Z,4.22
2018-08-28T15:52:31.201Z,4.33
2018-08-28T15:54:59.674Z,3.92
2018-08-28T15:57:28.154Z,4.28
2018-08-28T15:59:56.590Z,4.08
2018-08-28T16:02:25.018Z,4.20
2018-08-28T16:05:00.685Z,4.22
2018-08-28T16:07:29.106Z,4.17
2018-08-28T16:09:57.531Z,4.35
2018-08-28T16:12:26.058Z,4.03
2018-08-28T16:14:59.610Z,4.40
2018-08-28T16:17:28.033Z,4.22
2018-08-28T16:19:56.485Z,4.37
2018-08-28T16:22:29.101Z,4.15
2018-08-28T16:24:57.541Z,4.15
2018-08-28T16:27:25.995Z,4.42
2018-08-28T16:29:54.460Z,4.22
2018-08-28T16:32:22.895Z,4.10
2018-08-28T16:34:51.329Z,4.72
2018-08-28T16:37:22.644Z,4.45
2018-08-28T16:39:51.067Z,4.45
2018-08-28T16:42:19.566Z,4.37
2018-08-28T16:44:47.989Z,4.53
2018-08-28T16:47:16.433Z,4.85
2018-08-28T16:49:44.838Z,4.80
2018-08-28T16:52:13.257Z,4.23
2018-08-28T16:54:41.822Z,4.97
2018-08-28T16:57:10.294Z,4.07
2018-08-28T16:59:38.987Z,4.30
2018-08-28T17:02:07.462Z,4.30
2018-08-28T17:04:35.894Z,4.63
2018-08-28T17:07:04.373Z,4.37
2018-08-28T17:09:32.844Z,4.50
2018-08-28T17:12:01.266Z,4.53
2018-08-28T17:14:29.673Z,4.30
2018-08-28T17:16:58.126Z,4.30
2018-08-28T17:19:27.022Z,4.67
2018-08-28T17:21:55.449Z,4.67
2018-08-28T17:24:23.872Z,4.33
2018-08-28T17:26:52.515Z,4.73
2018-08-28T17:29:21.225Z,4.27
2018-08-28T17:31:49.705Z,4.93
2018-08-28T17:34:18.106Z,4.23
2018-08-28T17:36:46.644Z,4.53
2018-08-28T17:39:15.034Z,4.27
2018-08-28T17:41:43.463Z,4.73
2018-08-28T17:44:12.347Z,4.53
2018-08-28T17:46:40.826Z,4.60
2018-08-28T17:49:09.289Z,4.40
2018-08-28T17:51:37.697Z,4.30
2018-08-28T17:54:06.320Z,4.60
2018-08-28T17:56:34.749Z,4.60
2018-08-28T17:59:03.269Z,4.33
2018-08-28T18:01:31.715Z,4.63
2018-08-28T18:04:00.361Z,4.27
2018-08-28T18:06:28.792Z,4.63
2018-08-28T18:08:57.213Z,4.70
2018-08-28T18:11:25.657Z,4.30
2018-08-28T18:13:54.112Z,4.23
2018-08-28T18:16:22.587Z,5.07
2018-08-28T18:18:51.017Z,4.13
2018-08-28T18:21:19.845Z,5.03
2018-08-28T18:23:48.410Z,4.60
2018-08-28T18:26:17.013Z,4.60
2018-08-28T18:28:45.635Z,4.63
2018-08-28T18:31:14.154Z,5.70
2018-08-28T18:33:42.822Z,4.50
2018-08-28T18:36:11.331Z,4.73
2018-08-28T18:38:39.879Z,4.23
2018-08-28T18:41:08.535Z,4.80
2018-08-28T18:43:37.067Z,4.70
2018-08-28T18:46:05.606Z,4.50
2018-08-28T18:48:34.672Z,4.60
2018-08-28T18:51:03.242Z,4.70
2018-08-28T18:53:39.935Z,4.90
2018-08-28T18:56:08.526Z,5.03
2018-08-28T18:58:36.985Z,4.60
2018-08-28T19:01:06.198Z,4.90
2018-08-28T19:03:34.958Z,4.87
2018-08-28T19:06:04.048Z,4.83
2018-08-28T19:08:33.183Z,5.07
2018-08-28T19:11:01.830Z,4.80
2018-08-28T19:13:31.393Z,4.80
2018-08-28T19:16:00.587Z,4.87
2018-08-28T19:18:29.244Z,4.90
2018-08-28T19:21:04.416Z,4.60
2018-08-28T19:23:33.081Z,4.43
2018-08-28T19:26:02.856Z,5.53
2018-08-28T19:28:31.575Z,5.07
2018-08-28T19:31:00.838Z,4.57
2018-08-28T19:33:29.989Z,5.40
2018-08-28T19:35:59.628Z,4.97
2018-08-28T19:38:28.428Z,5.20
2018-08-28T19:40:57.077Z,5.10
2018-08-28T19:43:26.364Z,5.30
2018-08-28T19:45:54.938Z,5.47
2018-08-28T19:48:23.642Z,4.63
2018-08-28T19:50:52.241Z,4.97
2018-08-28T19:53:21.438Z,5.60
2018-08-28T19:55:50.150Z,5.30
2018-08-28T19:58:18.996Z,5.00
2018-08-28T20:00:48.942Z,5.17
2018-08-28T20:03:17.618Z,4.50
2018-08-28T20:05:46.536Z,4.60
2018-08-28T20:08:16.592Z,5.30
2018-08-28T20:10:45.182Z,4.40
2018-08-28T20:13:14.076Z,4.63
2018-08-28T20:15:43.735Z,5.13
2018-08-28T20:18:12.603Z,5.27
2018-08-28T20:20:42.671Z,4.87
2018-08-28T20:23:13.455Z,4.63
2018-08-28T20:25:45.712Z,5.10
2018-08-28T20:28:16.659Z,4.80
2018-08-28T20:30:45.465Z,4.63
2018-08-28T20:33:14.151Z,5.10
2018-08-28T20:35:43.485Z,5.20
2018-08-28T20:38:12.250Z,4.93
2018-08-28T20:40:42.928Z,4.60
2018-08-28T20:43:11.930Z,5.50
2018-08-28T20:45:40.527Z,5.03
2018-08-28T20:48:11.099Z,5.40
2018-08-28T20:50:39.750Z,5.80
2018-08-28T20:53:08.397Z,5.23
2018-08-28T20:55:37.383Z,5.60
2018-08-28T20:58:07.330Z,5.60
2018-08-28T21:00:36.843Z,5.80
2018-08-28T21:03:07.158Z,5.33
2018-08-28T21:05:36.409Z,5.23
2018-08-28T21:08:05.449Z,5.30
2018-08-28T21:10:34.078Z,5.70
2018-08-28T21:13:03.289Z,5.77
2018-08-28T21:15:31.706Z,5.30
2018-08-28T21:18:00.550Z,5.43
2018-08-28T21:20:30.453Z,6.17
2018-08-28T21:22:59.496Z,5.70
2018-08-28T21:25:29.002Z,5.60
2018-08-28T21:27:57.656Z,5.87
2018-08-28T21:30:26.479Z,5.97
2018-08-28T21:32:55.029Z,6.03
2018-08-28T21:35:23.945Z,5.77
2018-08-28T21:37:58.880Z,5.90
2018-08-28T21:40:27.357Z,5.97
2018-08-28T21:42:55.898Z,5.73
2018-08-28T21:45:24.492Z,6.13
2018-08-28T21:47:52.955Z,5.17
2018-08-28T21:50:21.501Z,5.77
2018-08-28T21:52:50.277Z,5.70
2018-08-28T21:55:19.169Z,5.67
2018-08-28T21:57:47.686Z,5.90
2018-08-28T22:00:16.226Z,5.50
2018-08-28T22:02:44.862Z,6.20
2018-08-28T22:05:13.401Z,5.33
2018-08-28T22:07:42.945Z,5.67
2018-08-28T22:10:11.536Z,5.77
2018-08-28T22:12:40.097Z,5.40
2018-08-28T22:15:12.825Z,5.73
2018-08-28T22:17:41.749Z,5.80
2018-08-28T22:20:10.625Z,5.87
2018-08-28T22:22:39.113Z,5.43
2018-08-28T22:25:07.695Z,5.60
2018-08-28T22:27:36.281Z,5.40
2018-08-28T22:30:05.224Z,5.40
2018-08-28T22:32:33.620Z,5.63
2018-08-28T22:35:02.229Z,5.67
2018-08-28T22:37:30.872Z,5.80
2018-08-28T22:39:59.232Z,5.93
2018-08-28T22:48:12.579Z,5.70
2018-08-28T22:50:40.957Z,5.20
2018-08-28T22:53:09.349Z,5.90
2018-08-28T22:55:37.746Z,5.67
2018-08-28T22:58:06.210Z,5.40
2018-08-28T23:00:34.621Z,5.73
2018-08-28T23:03:02.977Z,5.80
2018-08-28T23:05:31.339Z,6.30
2018-08-28T23:07:59.721Z,5.73
2018-08-28T23:10:28.100Z,5.70
2018-08-28T23:12:56.496Z,5.73
2018-08-28T23:15:24.901Z,5.90
2018-08-28T23:17:53.274Z,5.53
2018-08-28T23:20:21.633Z,5.20
2018-08-28T23:22:49.993Z,5.27
2018-08-28T23:25:18.365Z,5.60
2018-08-28T23:27:46.777Z,6.03
2018-08-28T23:30:15.126Z,5.57
2018-08-28T23:32:43.496Z,5.50
2018-08-28T23:35:11.972Z,7.13
2018-08-28T23:37:40.309Z,6.70
2018-08-28T23:40:08.712Z,6.73
2018-08-28T23:42:37.071Z,6.60
2018-08-28T23:45:05.681Z,7.03
2018-08-28T23:47:34.070Z,5.57
2018-08-28T23:50:02.448Z,6.13
2018-08-28T23:52:30.827Z,5.70
2018-08-28T23:54:59.209Z,6.17
2018-08-28T23:57:27.573Z,6.10
2018-08-28T23:59:55.947Z,6.53
